createdAt,value
2023-01-26T00:00:42.154Z,18.85
2023-01-26T00:04:43.810Z,25.15
2023-01-26T00:08:50.324Z,21.75
2023-01-26T00:12:51.735Z,18.48
2023-01-26T00:16:54.359Z,16.23
2023-01-26T00:20:57.867Z,20.48
2023-01-26T00:24:59.280Z,29.95
2023-01-26T00:29:01.495Z,21.60
2023-01-26T00:33:03.027Z,28.48
2023-01-26T00:37:04.487Z,27.25
2023-01-26T00:41:06.324Z,24.33
2023-01-26T00:45:08.243Z,27.77
2023-01-26T00:49:09.659Z,21.77
2023-01-26T00:53:11.195Z,20.92
2023-01-26T00:57:12.667Z,17.27
2023-01-26T01:01:14.141Z,20.02
2023-01-26T01:05:15.723Z,27.80
2023-01-26T01:09:17.668Z,20.27
2023-01-26T01:13:19.116Z,27.30
2023-01-26T01:17:20.650Z,20.40
2023-01-26T01:21:24.047Z,10.70
2023-01-26T01:25:25.485Z,14.52
2023-01-26T01:29:27.128Z,23.63
2023-01-26T01:33:28.542Z,28.05
2023-01-26T01:37:30.860Z,23.08
2023-01-26T01:41:32.353Z,21.92
2023-01-26T01:45:41.765Z,9.68
2023-01-26T01:49:47.840Z,23.30
2023-01-26T01:53:52.063Z,21.05
2023-01-26T01:57:56.814Z,23.35
2023-01-26T02:01:58.710Z,18.85
2023-01-26T02:06:16.019Z,35.85
2023-01-26T02:10:20.745Z,23.92
2023-01-26T02:14:22.482Z,27.70
2023-01-26T02:18:23.969Z,26.52
2023-01-26T02:22:53.266Z,24.00
2023-01-26T02:26:54.963Z,24.75
2023-01-26T02:30:56.841Z,29.45
2023-01-26T02:34:58.442Z,21.00
2023-01-26T02:39:22.364Z,29.38
2023-01-26T02:43:26.409Z,21.52
2023-01-26T02:47:27.875Z,25.45
2023-01-26T02:51:29.344Z,27.65
2023-01-26T02:55:31.076Z,31.92
2023-01-26T02:59:32.581Z,28.38
2023-01-26T03:03:42.956Z,31.33
2023-01-26T03:07:44.507Z,30.20
2023-01-26T03:11:46.051Z,32.22
2023-01-26T03:15:54.553Z,36.47
2023-01-26T03:20:14.459Z,23.17
2023-01-26T03:24:35.290Z,32.42
2023-01-26T03:28:36.739Z,28.52
2023-01-26T03:32:38.302Z,32.40
2023-01-26T03:36:39.770Z,25.98
2023-01-26T03:40:59.838Z,23.55
2023-01-26T03:45:19.565Z,32.10
2023-01-26T03:49:39.393Z,29.02
2023-01-26T03:53:59.724Z,28.33
2023-01-26T04:02:20.891Z,18.95
2023-01-26T04:06:41.017Z,29.65
2023-01-26T04:10:42.468Z,25.90
2023-01-26T04:15:02.223Z,18.58
2023-01-26T04:19:22.422Z,28.13
2023-01-26T04:23:23.843Z,21.20
2023-01-26T04:27:25.409Z,18.35
2023-01-26T04:31:26.880Z,17.60
2023-01-26T04:35:28.374Z,26.10
2023-01-26T04:39:29.775Z,19.80
2023-01-26T04:43:31.222Z,22.58
2023-01-26T04:47:32.900Z,24.00
2023-01-26T04:51:34.805Z,27.70
2023-01-26T04:55:36.212Z,26.33
2023-01-26T04:59:37.681Z,19.35
2023-01-26T05:03:39.107Z,20.90
2023-01-26T05:07:40.553Z,22.98
2023-01-26T05:11:42.135Z,26.23
2023-01-26T05:15:43.621Z,21.45
2023-01-26T05:19:45.029Z,15.75
2023-01-26T05:23:46.637Z,15.60
2023-01-26T05:27:48.204Z,20.40
2023-01-26T05:31:49.729Z,19.67
2023-01-26T05:35:52.620Z,21.25
2023-01-26T05:39:54.280Z,19.85
2023-01-26T05:43:55.705Z,17.10
2023-01-26T05:47:57.271Z,17.63
2023-01-26T05:51:58.859Z,18.30
2023-01-26T05:56:00.280Z,19.02
2023-01-26T06:00:02.824Z,10.75
2023-01-26T06:04:04.357Z,19.08
2023-01-26T06:08:05.957Z,9.88
2023-01-26T06:12:18.557Z,10.43
2023-01-26T06:16:20.027Z,20.67
2023-01-26T06:20:21.476Z,16.30
2023-01-26T06:24:23.784Z,15.43
2023-01-26T06:28:25.275Z,18.48
2023-01-26T06:32:27.895Z,17.17
2023-01-26T06:36:29.459Z,15.75
2023-01-26T06:40:31.009Z,16.30
2023-01-26T06:44:32.468Z,16.65
2023-01-26T06:48:35.149Z,18.40
2023-01-26T06:52:36.653Z,18.42
2023-01-26T06:56:38.732Z,24.63
2023-01-26T07:00:40.960Z,22.25
2023-01-26T07:04:42.438Z,18.75
2023-01-26T07:08:44.339Z,20.15
2023-01-26T07:12:46.358Z,15.45
2023-01-26T07:16:47.946Z,18.38
2023-01-26T07:20:49.434Z,20.90
2023-01-26T07:24:50.968Z,18.77
2023-01-26T07:28:52.481Z,18.63
2023-01-26T07:32:54.008Z,20.42
2023-01-26T07:36:55.465Z,17.60
2023-01-26T07:40:57.566Z,14.88
2023-01-26T07:44:59.832Z,20.52
2023-01-26T07:49:01.310Z,15.52
2023-01-26T07:53:02.958Z,18.83
2023-01-26T07:57:08.212Z,18.35
2023-01-26T08:01:14.304Z,17.73
2023-01-26T08:05:15.942Z,19.58
2023-01-26T08:09:17.491Z,20.35
2023-01-26T08:13:29.927Z,17.63
2023-01-26T08:17:36.109Z,22.90
2023-01-26T08:21:37.612Z,17.77
2023-01-26T08:25:39.055Z,19.77
2023-01-26T08:29:40.564Z,19.45
2023-01-26T08:33:42.639Z,13.60
2023-01-26T08:37:44.312Z,16.60
2023-01-26T08:41:47.486Z,15.98
2023-01-26T08:45:51.437Z,19.52
2023-01-26T08:49:54.840Z,20.20
2023-01-26T08:53:56.532Z,13.30
2023-01-26T08:57:59.331Z,16.80
2023-01-26T09:02:02.111Z,13.35
2023-01-26T09:06:07.263Z,19.60
2023-01-26T09:10:10.610Z,18.85
2023-01-26T09:14:12.824Z,16.73
2023-01-26T09:18:14.800Z,15.93
2023-01-26T09:22:16.827Z,12.35
2023-01-26T09:26:19.361Z,14.38
2023-01-26T09:30:21.618Z,15.27
2023-01-26T09:34:25.597Z,19.73
2023-01-26T09:38:27.110Z,22.52
2023-01-26T09:43:02.783Z,20.88
2023-01-26T09:47:13.430Z,18.00
2023-01-26T09:51:26.495Z,16.95
2023-01-26T09:55:28.936Z,18.60
2023-01-26T09:59:44.284Z,18.67
2023-01-26T10:04:10.877Z,15.05
2023-01-26T10:08:14.799Z,12.30
2023-01-26T10:12:25.372Z,13.45
2023-01-26T10:16:27.346Z,14.68
2023-01-26T10:20:39.301Z,14.70
2023-01-26T10:24:44.279Z,12.02
2023-01-26T10:28:48.262Z,8.68
2023-01-26T10:32:52.584Z,14.25
2023-01-26T10:37:11.568Z,9.43
2023-01-26T10:41:19.116Z,8.65
2023-01-26T10:45:32.858Z,10.38
2023-01-26T10:49:34.408Z,8.60
2023-01-26T10:53:35.950Z,11.05
2023-01-26T10:57:39.360Z,10.13
2023-01-26T11:01:55.618Z,13.95
2023-01-26T11:06:17.822Z,12.68
2023-01-26T11:10:28.390Z,11.82
2023-01-26T11:14:31.534Z,13.23
2023-01-26T11:18:59.716Z,16.23
2023-01-26T11:23:29.328Z,14.95
2023-01-26T11:27:51.410Z,16.63
2023-01-26T11:32:38.272Z,12.18
2023-01-26T11:36:55.613Z,13.45
2023-01-26T11:41:24.442Z,12.50
2023-01-26T11:45:45.472Z,14.23
2023-01-26T11:50:16.068Z,14.43
2023-01-26T11:54:38.105Z,11.85
2023-01-26T11:58:46.545Z,17.38
2023-01-26T12:03:03.321Z,11.60
2023-01-26T12:07:15.930Z,8.15
2023-01-26T12:11:38.319Z,13.70
2023-01-26T12:15:46.596Z,12.57
2023-01-26T12:19:56.432Z,15.10
2023-01-26T12:28:15.732Z,15.80
2023-01-26T12:32:17.385Z,14.18
2023-01-26T12:36:41.705Z,11.07
2023-01-26T12:41:13.069Z,12.90
2023-01-26T12:45:39.211Z,13.07
2023-01-26T12:49:45.074Z,10.32
2023-01-26T12:53:58.761Z,7.30
2023-01-26T12:58:11.151Z,7.80
2023-01-26T13:02:15.687Z,7.05
2023-01-26T13:06:21.631Z,9.10
2023-01-26T13:10:25.985Z,8.30
2023-01-26T13:14:33.439Z,12.85
2023-01-26T13:19:04.087Z,7.63
2023-01-26T13:23:28.218Z,8.48
2023-01-26T13:27:38.451Z,10.43
2023-01-26T13:31:39.939Z,9.77
2023-01-26T13:35:42.533Z,10.73
2023-01-26T13:39:48.389Z,10.57
2023-01-26T13:43:59.244Z,10.52
2023-01-26T13:48:03.781Z,9.80
2023-01-26T13:52:27.975Z,12.13
2023-01-26T13:56:38.975Z,12.52
2023-01-26T14:00:40.602Z,10.20
2023-01-26T14:04:51.931Z,12.45
2023-01-26T14:08:57.475Z,13.98
2023-01-26T14:13:01.084Z,9.65
2023-01-26T14:17:24.275Z,10.85
2023-01-26T14:21:25.904Z,11.75
2023-01-26T14:25:27.406Z,12.15
2023-01-26T14:29:30.462Z,11.43
2023-01-26T14:33:31.960Z,8.95
2023-01-26T14:37:33.434Z,16.65
2023-01-26T14:41:37.665Z,14.32
2023-01-26T14:45:45.251Z,16.02
2023-01-26T14:49:51.499Z,13.73
2023-01-26T14:53:57.791Z,16.10
2023-01-26T14:58:02.178Z,14.93
2023-01-26T15:02:15.582Z,20.15
2023-01-26T15:06:23.443Z,15.27
2023-01-26T15:10:33.372Z,23.70
2023-01-26T15:19:03.828Z,15.75
2023-01-26T15:23:27.490Z,19.65
2023-01-26T15:27:36.413Z,21.02
2023-01-26T15:31:41.506Z,23.90
2023-01-26T15:35:57.653Z,22.20
2023-01-26T15:39:59.208Z,18.65
2023-01-26T15:44:00.828Z,24.08
2023-01-26T15:48:02.368Z,21.90
2023-01-26T15:52:12.450Z,19.35
2023-01-26T15:56:15.780Z,23.08
2023-01-26T16:00:18.008Z,22.48
2023-01-26T16:04:19.705Z,18.40
2023-01-26T16:08:21.184Z,19.30
2023-01-26T16:12:32.096Z,18.63
2023-01-26T16:16:33.984Z,18.30
2023-01-26T16:20:38.358Z,18.08
2023-01-26T16:24:40.556Z,18.58
2023-01-26T16:28:42.736Z,14.98
2023-01-26T16:32:44.912Z,15.50
2023-01-26T16:36:46.388Z,26.42
2023-01-26T16:40:49.485Z,21.25
2023-01-26T16:44:51.034Z,19.63
2023-01-26T16:48:52.941Z,22.67
2023-01-26T16:52:55.174Z,15.27
2023-01-26T16:56:57.498Z,16.27
2023-01-26T17:00:59.042Z,26.52
2023-01-26T17:05:00.619Z,20.83
2023-01-26T17:09:02.231Z,21.35
2023-01-26T17:13:04.131Z,22.27
2023-01-26T17:17:05.761Z,28.55
2023-01-26T17:21:07.583Z,24.42
2023-01-26T17:25:10.477Z,24.95
2023-01-26T17:29:13.381Z,29.23
2023-01-26T17:33:15.247Z,24.50
2023-01-26T17:37:16.745Z,22.40
2023-01-26T17:41:18.210Z,24.58
2023-01-26T17:45:19.670Z,25.02
2023-01-26T17:49:21.566Z,26.45
2023-01-26T17:53:24.411Z,23.88
2023-01-26T17:57:25.956Z,27.83
2023-01-26T18:01:27.562Z,23.48
2023-01-26T18:05:29.323Z,30.15
2023-01-26T18:09:31.226Z,24.67
2023-01-26T18:13:33.303Z,26.48
2023-01-26T18:17:36.612Z,23.63
2023-01-26T18:21:38.153Z,22.83
2023-01-26T18:25:40.958Z,24.38
2023-01-26T18:29:42.484Z,30.33
2023-01-26T18:33:44.783Z,29.63
2023-01-26T18:37:46.295Z,24.90
2023-01-26T18:41:47.798Z,31.05
2023-01-26T18:45:49.331Z,26.45
2023-01-26T18:49:50.976Z,24.10
2023-01-26T18:53:52.903Z,26.50
2023-01-26T18:57:55.218Z,28.50
2023-01-26T19:01:56.902Z,28.05
2023-01-26T19:06:02.562Z,30.38
2023-01-26T19:10:05.999Z,33.55
2023-01-26T19:14:08.317Z,29.77
2023-01-26T19:18:09.776Z,25.45
2023-01-26T19:22:11.531Z,29.15
2023-01-26T19:26:19.296Z,29.73
2023-01-26T19:30:20.943Z,21.65
2023-01-26T19:34:23.067Z,21.38
2023-01-26T19:38:25.073Z,31.38
2023-01-26T19:42:26.533Z,23.42
2023-01-26T19:46:28.114Z,30.40
2023-01-26T19:50:29.666Z,31.83
2023-01-26T19:54:31.138Z,34.33
2023-01-26T19:58:32.803Z,26.73
2023-01-26T20:02:34.373Z,26.23
2023-01-26T20:06:36.844Z,30.65
2023-01-26T20:10:38.737Z,27.95
2023-01-26T20:14:40.292Z,23.17
2023-01-26T20:18:41.741Z,24.20
2023-01-26T20:22:43.192Z,26.70
2023-01-26T20:26:44.876Z,29.65
2023-01-26T20:30:46.380Z,25.73
2023-01-26T20:34:48.058Z,34.30
2023-01-26T20:38:50.286Z,27.52
2023-01-26T20:42:52.242Z,30.70
2023-01-26T20:46:54.943Z,33.03
2023-01-26T20:50:56.437Z,27.83
2023-01-26T20:54:58.159Z,23.92
2023-01-26T20:58:59.686Z,23.45
2023-01-26T21:03:01.428Z,25.75
2023-01-26T21:07:03.076Z,34.03
2023-01-26T21:11:11.848Z,30.75
2023-01-26T21:15:13.333Z,25.55
2023-01-26T21:19:14.844Z,24.38
2023-01-26T21:23:16.269Z,29.00
2023-01-26T21:27:18.291Z,24.08
2023-01-26T21:31:21.322Z,22.08
2023-01-26T21:35:23.038Z,29.60
2023-01-26T21:39:24.478Z,30.70
2023-01-26T21:43:26.567Z,26.45
2023-01-26T21:47:28.006Z,30.83
2023-01-26T21:51:48.892Z,26.13
2023-01-26T21:55:50.398Z,27.92
2023-01-26T21:59:52.718Z,30.40
2023-01-26T22:03:55.813Z,30.48
2023-01-26T22:07:57.279Z,25.67
2023-01-26T22:11:58.692Z,27.02
2023-01-26T22:16:04.195Z,32.70
2023-01-26T22:20:06.330Z,28.55
2023-01-26T22:24:11.311Z,20.50
2023-01-26T22:28:13.520Z,31.40
2023-01-26T22:32:15.015Z,26.27
2023-01-26T22:36:17.031Z,24.77
2023-01-26T22:40:18.985Z,26.60
2023-01-26T22:44:20.416Z,27.05
2023-01-26T22:48:21.925Z,26.27
2023-01-26T22:52:23.490Z,28.20
2023-01-26T22:56:26.523Z,22.98
2023-01-26T23:00:28.007Z,24.20
2023-01-26T23:04:29.501Z,25.80
2023-01-26T23:08:31.651Z,23.38
2023-01-26T23:12:33.207Z,30.85
2023-01-26T23:16:34.702Z,27.55
2023-01-26T23:20:36.162Z,27.92
2023-01-26T23:24:37.623Z,21.13
2023-01-26T23:28:41.599Z,23.95
2023-01-26T23:32:43.036Z,22.42
2023-01-26T23:36:44.510Z,24.38
2023-01-26T23:40:48.703Z,20.08
2023-01-26T23:44:50.154Z,23.17
2023-01-26T23:48:51.930Z,22.63
2023-01-26T23:52:53.353Z,24.98
2023-01-26T23:56:54.833Z,19.08
